createdAt,value
2018-09-24T00:47:46.799Z,9.50
2018-09-24T02:01:47.593Z,9.53
2018-09-24T02:04:16.472Z,7.50
2018-09-24T02:06:44.966Z,14.27
2018-09-24T02:09:13.592Z,9.77
2018-09-24T02:11:42.689Z,15.90
2018-09-24T02:14:11.634Z,8.40
2018-09-24T02:16:40.256Z,6.73
2018-09-24T02:19:08.855Z,7.93
2018-09-24T02:21:37.791Z,9.10
2018-09-24T02:24:06.763Z,10.10
2018-09-24T02:26:35.305Z,7.70
2018-09-24T02:29:03.825Z,10.57
2018-09-24T02:31:39.925Z,11.30
2018-09-24T02:34:10.096Z,10.67
2018-09-24T02:36:38.792Z,9.90
2018-09-24T02:39:08.627Z,6.13
2018-09-24T02:41:37.678Z,12.67
2018-09-24T02:44:06.173Z,6.03
2018-09-24T02:46:42.685Z,8.77
2018-09-24T02:49:11.215Z,10.60
2018-09-24T02:51:39.878Z,6.87
2018-09-24T02:54:08.448Z,9.77
2018-09-24T02:56:42.755Z,10.57
2018-09-24T02:59:11.439Z,5.10
2018-09-24T03:01:40.025Z,6.90
2018-09-24T03:04:09.219Z,9.60
2018-09-24T03:06:38.816Z,6.50
2018-09-24T03:09:15.847Z,4.73
2018-09-24T03:11:44.677Z,4.30
2018-09-24T03:14:13.275Z,13.20
2018-09-24T03:16:42.044Z,7.20
2018-09-24T03:19:10.619Z,11.43
2018-09-24T03:21:39.554Z,9.20
2018-09-24T03:24:08.484Z,12.97
2018-09-24T03:26:41.487Z,12.23
2018-09-24T03:29:14.719Z,11.03
2018-09-24T03:31:43.208Z,9.93
2018-09-24T03:34:14.830Z,12.93
2018-09-24T03:36:43.441Z,6.50
2018-09-24T03:39:12.414Z,6.57
2018-09-24T03:41:41.151Z,10.20
2018-09-24T03:44:10.354Z,9.90
2018-09-24T03:46:39.122Z,5.80
2018-09-24T03:49:08.195Z,8.63
2018-09-24T03:51:37.074Z,9.83
2018-09-24T03:54:06.362Z,6.27
2018-09-24T03:56:34.994Z,7.27
2018-09-24T03:59:03.699Z,9.40
2018-09-24T04:01:32.304Z,10.87
2018-09-24T04:04:06.317Z,6.83
2018-09-24T04:06:40.138Z,8.27
2018-09-24T04:09:14.729Z,21.03
2018-09-24T04:11:48.778Z,7.77
2018-09-24T04:14:22.639Z,3.20
2018-09-24T04:16:56.678Z,10.83
2018-09-24T04:19:30.679Z,6.90
2018-09-24T04:22:04.542Z,6.63
2018-09-24T04:24:38.438Z,10.57
2018-09-24T04:27:12.453Z,7.67
2018-09-24T04:29:46.563Z,10.27
2018-09-24T04:32:20.471Z,10.43
2018-09-24T04:34:54.335Z,18.90
2018-09-24T04:37:28.397Z,14.53
2018-09-24T04:40:02.268Z,14.10
2018-09-24T04:42:36.547Z,12.90
2018-09-24T04:45:10.427Z,8.80
2018-09-24T04:47:44.234Z,12.43
2018-09-24T04:50:18.101Z,9.73
2018-09-24T04:52:52.235Z,6.60
2018-09-24T04:55:26.298Z,4.93
2018-09-24T04:58:00.284Z,16.10
2018-09-24T05:00:34.184Z,20.50
2018-09-24T05:03:08.168Z,9.73
2018-09-24T05:05:42.112Z,10.53
2018-09-24T05:08:16.006Z,18.47
2018-09-24T05:10:49.994Z,17.33
2018-09-24T05:13:23.974Z,19.33
2018-09-24T05:15:58.044Z,7.80
2018-09-24T05:18:32.317Z,14.67
2018-09-24T05:21:06.234Z,15.23
2018-09-24T05:23:40.133Z,7.90
2018-09-24T05:26:13.961Z,12.63
2018-09-24T05:28:47.855Z,10.70
2018-09-24T05:31:22.006Z,10.77
2018-09-24T05:33:55.955Z,7.90
2018-09-24T05:36:29.825Z,54.90
2018-09-24T05:39:03.738Z,163.77
2018-09-24T05:41:37.528Z,131.60
2018-09-24T05:44:11.544Z,285.70
2018-09-24T05:46:45.297Z,151.47
2018-09-24T05:49:20.351Z,40.67
2018-09-24T05:51:54.220Z,361.23
2018-09-24T05:54:28.124Z,257.13
2018-09-24T05:57:01.963Z,187.47
2018-09-24T05:59:36.084Z,66.90
2018-09-24T06:02:10.078Z,73.73
2018-09-24T06:04:44.124Z,23.30
2018-09-24T06:07:18.000Z,16.90
2018-09-24T06:09:52.702Z,15.87
2018-09-24T06:12:26.565Z,5.20
2018-09-24T06:15:00.590Z,13.03
2018-09-24T06:17:34.457Z,22.53
2018-09-24T06:20:08.744Z,10.77
2018-09-24T06:22:43.124Z,10.53
2018-09-24T06:25:17.085Z,11.13
2018-09-24T06:27:50.878Z,8.50
2018-09-24T06:30:25.072Z,10.47
2018-09-24T06:32:59.196Z,16.57
2018-09-24T06:35:33.424Z,8.17
2018-09-24T06:38:07.290Z,10.13
2018-09-24T06:40:41.310Z,6.13
2018-09-24T06:43:15.426Z,15.57
2018-09-24T06:45:49.855Z,4.13
2018-09-24T06:48:23.845Z,6.00
2018-09-24T06:50:57.742Z,9.93
2018-09-24T06:53:34.134Z,9.30
2018-09-24T06:56:09.451Z,8.50
2018-09-24T06:58:43.928Z,6.50
2018-09-24T07:01:19.164Z,4.70
2018-09-24T07:03:53.693Z,2.63
2018-09-24T07:09:20.545Z,11.27
2018-09-24T07:11:56.084Z,8.17
2018-09-24T07:14:30.071Z,5.77
2018-09-24T07:17:04.290Z,2.50
2018-09-24T07:19:38.368Z,4.50
2018-09-24T07:22:12.885Z,11.87
2018-09-24T07:24:48.756Z,6.23
2018-09-24T07:27:22.650Z,13.23
2018-09-24T07:29:58.025Z,4.17
2018-09-24T07:32:32.392Z,5.00
2018-09-24T07:35:07.215Z,5.83
2018-09-24T07:37:41.253Z,7.17
2018-09-24T07:40:15.459Z,16.27
2018-09-24T07:42:49.716Z,8.13
2018-09-24T07:45:23.684Z,8.50
2018-09-24T07:47:57.822Z,11.57
2018-09-24T07:50:31.603Z,12.97
2018-09-24T07:53:05.465Z,12.73
2018-09-24T07:55:39.277Z,5.07
2018-09-24T07:58:13.041Z,4.87
2018-09-24T08:00:47.088Z,4.37
2018-09-24T08:03:21.355Z,8.93
2018-09-24T08:05:55.234Z,5.77
2018-09-24T08:08:28.991Z,6.27
2018-09-24T08:11:02.871Z,13.03
2018-09-24T08:13:36.822Z,5.17
2018-09-24T08:16:10.464Z,6.30
2018-09-24T08:18:44.411Z,10.73
2018-09-24T08:21:18.588Z,8.33
2018-09-24T08:23:52.503Z,8.53
2018-09-24T08:26:26.468Z,7.13
2018-09-24T08:29:00.413Z,22.33
2018-09-24T08:31:34.349Z,6.53
2018-09-24T08:34:08.212Z,5.07
2018-09-24T08:36:42.121Z,6.50
2018-09-24T08:39:15.984Z,7.30
2018-09-24T08:41:49.960Z,6.10
2018-09-24T08:44:23.791Z,9.47
2018-09-24T08:46:57.899Z,9.17
2018-09-24T08:49:31.818Z,13.93
2018-09-24T08:52:05.641Z,8.73
2018-09-24T08:54:39.824Z,7.00
2018-09-24T08:57:13.974Z,10.82
2018-09-24T08:59:48.161Z,13.07
2018-09-24T09:02:22.453Z,9.03
2018-09-24T09:04:56.636Z,11.37
2018-09-24T09:07:30.738Z,6.60
2018-09-24T09:10:04.498Z,6.20
2018-09-24T09:12:39.431Z,5.60
2018-09-24T09:15:13.381Z,8.40
2018-09-24T09:17:47.549Z,6.37
2018-09-24T09:20:21.702Z,12.13
2018-09-24T09:22:55.938Z,9.23
2018-09-24T09:25:30.358Z,9.13
2018-09-24T09:28:04.765Z,6.73
2018-09-24T09:30:39.368Z,3.77
2018-09-24T09:33:13.637Z,2.40
2018-09-24T09:35:47.656Z,17.07
2018-09-24T09:38:21.718Z,13.63
2018-09-24T09:40:56.012Z,8.20
2018-09-24T09:43:29.833Z,9.07
2018-09-24T09:46:04.008Z,7.97
2018-09-24T09:48:38.546Z,13.07
2018-09-24T09:51:12.586Z,13.20
2018-09-24T09:53:46.664Z,5.27
2018-09-24T09:56:20.700Z,10.10
2018-09-24T09:58:54.595Z,2.73
2018-09-24T10:01:28.753Z,9.73
2018-09-24T10:04:02.861Z,19.37
2018-09-24T10:06:37.005Z,10.57
2018-09-24T10:09:13.360Z,7.23
2018-09-24T10:11:47.414Z,13.47
2018-09-24T10:14:21.658Z,6.90
2018-09-24T10:16:55.606Z,7.23
2018-09-24T10:19:29.506Z,5.17
2018-09-24T10:22:03.536Z,5.40
2018-09-24T10:24:37.607Z,6.87
2018-09-24T10:27:11.769Z,6.63
2018-09-24T10:29:45.577Z,7.87
2018-09-24T10:32:19.813Z,6.00
2018-09-24T10:34:53.760Z,7.40
2018-09-24T10:37:27.775Z,3.07
2018-09-24T10:40:01.799Z,5.03
2018-09-24T10:42:35.812Z,5.90
2018-09-24T10:45:09.978Z,9.60
2018-09-24T10:47:44.081Z,3.03
2018-09-24T10:50:18.162Z,1.63
2018-09-24T10:52:52.258Z,6.00
2018-09-24T10:55:26.420Z,5.33
2018-09-24T10:58:00.873Z,7.00
2018-09-24T11:00:34.886Z,6.37
2018-09-24T11:03:08.879Z,3.57
2018-09-24T11:05:42.805Z,12.10
2018-09-24T11:08:16.864Z,7.33
2018-09-24T11:10:51.005Z,7.70
2018-09-24T11:13:25.095Z,4.50
2018-09-24T11:15:59.329Z,6.23
2018-09-24T11:18:33.232Z,6.17
2018-09-24T11:21:07.229Z,10.30
2018-09-24T11:23:41.245Z,6.07
2018-09-24T11:28:49.153Z,7.60
2018-09-24T11:31:23.009Z,5.87
2018-09-24T11:33:57.412Z,7.63
2018-09-24T11:36:32.001Z,4.93
2018-09-24T11:39:06.494Z,4.83
2018-09-24T11:41:41.199Z,10.33
2018-09-24T11:44:16.003Z,5.53
2018-09-24T11:49:30.386Z,4.13
2018-09-24T11:52:04.335Z,7.33
2018-09-24T11:54:38.475Z,7.63
2018-09-24T11:57:12.676Z,15.93
2018-09-24T11:59:46.534Z,4.17
2018-09-24T12:02:20.936Z,16.30
2018-09-24T12:04:54.877Z,13.73
2018-09-24T12:07:28.795Z,5.47
2018-09-24T12:10:02.972Z,10.03
2018-09-24T12:12:36.943Z,6.90
2018-09-24T12:15:11.219Z,5.27
2018-09-24T12:17:45.420Z,10.00
2018-09-24T12:20:19.442Z,3.97
2018-09-24T12:22:53.392Z,6.10
2018-09-24T12:25:27.361Z,6.60
2018-09-24T12:28:01.239Z,6.33
2018-09-24T12:30:35.177Z,20.80
2018-09-24T12:33:09.082Z,16.93
2018-09-24T12:35:43.064Z,8.53
2018-09-24T12:38:17.221Z,7.60
2018-09-24T12:40:51.361Z,11.40
2018-09-24T12:43:25.503Z,11.83
2018-09-24T12:45:59.749Z,9.13
2018-09-24T12:48:33.808Z,2.63
2018-09-24T12:51:07.988Z,5.37
2018-09-24T12:53:42.067Z,12.27
2018-09-24T12:56:16.218Z,4.60
2018-09-24T12:58:50.444Z,8.43
2018-09-24T13:01:24.373Z,5.73
2018-09-24T13:03:58.552Z,8.90
2018-09-24T13:06:32.728Z,6.60
2018-09-24T13:09:06.909Z,7.13
2018-09-24T13:11:40.888Z,4.13
2018-09-24T13:14:15.115Z,4.80
2018-09-24T13:16:49.270Z,8.80
2018-09-24T13:19:23.632Z,12.40
2018-09-24T13:21:57.521Z,8.83
2018-09-24T13:24:31.401Z,10.40
2018-09-24T13:27:05.456Z,6.33
2018-09-24T13:29:39.463Z,8.57
2018-09-24T13:32:13.612Z,2.20
2018-09-24T13:34:47.861Z,6.03
2018-09-24T13:37:22.009Z,4.27
2018-09-24T13:39:55.923Z,3.80
2018-09-24T13:42:29.893Z,1.47
2018-09-24T13:45:04.215Z,3.20
2018-09-24T13:47:38.404Z,4.83
2018-09-24T13:50:12.398Z,6.90
2018-09-24T13:52:46.695Z,8.80
2018-09-24T13:55:20.718Z,5.40
2018-09-24T13:57:54.662Z,1.47
2018-09-24T14:00:28.526Z,7.77
2018-09-24T14:03:02.622Z,4.30
2018-09-24T14:05:36.740Z,1.17
2018-09-24T14:08:12.391Z,2.50
2018-09-24T14:10:46.375Z,3.80
2018-09-24T14:13:21.638Z,1.90
2018-09-24T14:15:55.918Z,2.40
2018-09-24T14:18:30.075Z,6.25
2018-09-24T14:21:04.121Z,9.97
2018-09-24T14:23:38.697Z,5.93
2018-09-24T14:26:12.968Z,4.90
2018-09-24T14:28:46.929Z,5.17
2018-09-24T14:31:20.961Z,2.65
2018-09-24T14:33:54.981Z,9.40
2018-09-24T14:36:29.116Z,4.30
2018-09-24T14:39:03.206Z,1.87
2018-09-24T14:41:37.404Z,11.57
2018-09-24T14:44:11.286Z,1.80
2018-09-24T14:46:45.185Z,3.47
2018-09-24T14:49:19.267Z,1.70
2018-09-24T14:51:53.213Z,1.27
2018-09-24T14:54:27.271Z,2.90
2018-09-24T14:57:01.338Z,2.83
2018-09-24T14:59:35.184Z,3.27
2018-09-24T15:02:09.206Z,5.87
2018-09-24T15:04:43.226Z,6.60
2018-09-24T15:07:17.210Z,6.60
2018-09-24T15:09:51.050Z,2.87
2018-09-24T15:12:24.881Z,4.45
2018-09-24T15:14:59.062Z,6.20
2018-09-24T15:17:33.172Z,3.10
2018-09-24T15:20:07.122Z,4.85
2018-09-24T15:22:41.086Z,5.90
2018-09-24T15:25:15.577Z,3.85
2018-09-24T15:27:49.333Z,2.83
2018-09-24T15:30:23.386Z,4.10
2018-09-24T15:32:57.547Z,2.20
2018-09-24T15:35:31.765Z,2.80
2018-09-24T15:38:13.237Z,6.95
2018-09-24T15:40:47.210Z,2.70
2018-09-24T15:43:22.382Z,3.35
2018-09-24T15:45:56.715Z,3.10
2018-09-24T15:48:32.766Z,2.30
2018-09-24T15:51:10.180Z,1.20
2018-09-24T15:53:44.318Z,1.37
2018-09-24T15:56:18.278Z,2.20
2018-09-24T15:58:52.545Z,1.20
2018-09-24T16:01:26.503Z,2.90
2018-09-24T16:04:00.931Z,6.87
2018-09-24T16:06:34.954Z,1.10
2018-09-24T16:09:09.433Z,1.30
2018-09-24T16:11:43.466Z,4.30
2018-09-24T16:14:17.346Z,3.15
2018-09-24T16:16:51.285Z,1.33
2018-09-24T16:19:25.972Z,4.20
2018-09-24T16:22:00.129Z,1.23
2018-09-24T16:24:34.043Z,1.47
2018-09-24T16:27:08.062Z,5.80
2018-09-24T16:29:42.223Z,1.77
2018-09-24T16:32:16.668Z,6.23
2018-09-24T16:34:50.590Z,3.70
2018-09-24T16:37:24.542Z,15.53
2018-09-24T16:39:58.466Z,4.07
2018-09-24T16:42:32.553Z,2.93
2018-09-24T16:45:06.467Z,6.90
2018-09-24T16:47:40.671Z,2.30
2018-09-24T16:50:14.918Z,5.13
2018-09-24T16:52:48.827Z,3.17
2018-09-24T16:55:22.942Z,4.30
2018-09-24T16:57:57.075Z,4.60
2018-09-24T17:00:31.261Z,5.13
2018-09-24T17:03:05.184Z,3.73
2018-09-24T17:05:39.186Z,1.60
2018-09-24T17:08:13.172Z,4.87
2018-09-24T17:10:47.188Z,1.93
2018-09-24T17:13:21.062Z,3.90
2018-09-24T17:15:54.898Z,5.05
2018-09-24T17:18:28.875Z,1.60
2018-09-24T17:21:02.866Z,1.67
2018-09-24T17:23:36.680Z,4.13
2018-09-24T17:26:10.658Z,3.13
2018-09-24T17:28:44.381Z,4.07
2018-09-24T17:31:18.565Z,3.80
2018-09-24T17:33:54.280Z,4.33
2018-09-24T17:36:28.572Z,1.93
2018-09-24T17:39:02.519Z,3.97
2018-09-24T17:41:36.764Z,3.63
2018-09-24T17:44:10.688Z,3.77
2018-09-24T17:46:44.720Z,3.00
2018-09-24T17:49:18.644Z,5.40
2018-09-24T17:51:52.439Z,9.83
2018-09-24T17:54:26.336Z,2.97
2018-09-24T17:57:00.249Z,6.13
2018-09-24T17:59:34.056Z,3.83
2018-09-24T18:02:07.980Z,9.57
2018-09-24T18:04:41.872Z,6.40
2018-09-24T18:07:15.805Z,3.90
2018-09-24T18:09:49.768Z,2.70
2018-09-24T18:12:23.605Z,1.63
2018-09-24T18:14:58.231Z,7.37
2018-09-24T18:17:31.994Z,2.30
2018-09-24T18:20:05.893Z,6.90
2018-09-24T18:22:39.844Z,2.20
2018-09-24T18:25:13.739Z,4.50
2018-09-24T18:27:47.907Z,6.63
2018-09-24T18:30:21.949Z,6.80
2018-09-24T18:32:56.015Z,2.50
2018-09-24T18:35:29.995Z,4.23
2018-09-24T18:38:04.336Z,1.43
2018-09-24T18:40:38.300Z,6.43
2018-09-24T18:43:12.465Z,3.63
2018-09-24T18:45:46.673Z,6.67
2018-09-24T18:48:20.720Z,7.40
2018-09-24T18:50:54.585Z,2.37
2018-09-24T18:53:28.516Z,2.13
2018-09-24T18:56:02.470Z,2.60
2018-09-24T18:58:36.452Z,7.80
2018-09-24T19:01:10.605Z,3.17
2018-09-24T19:03:45.970Z,4.50
2018-09-24T19:06:19.827Z,5.73
2018-09-24T19:08:53.924Z,2.50
2018-09-24T19:11:28.247Z,2.97
2018-09-24T19:14:02.193Z,3.33
2018-09-24T19:16:38.593Z,7.60
2018-09-24T19:19:13.612Z,4.17
2018-09-24T19:21:48.723Z,3.73
2018-09-24T19:24:22.806Z,4.23
2018-09-24T19:26:56.754Z,2.90
2018-09-24T19:29:34.597Z,2.67
2018-09-24T19:35:04.083Z,2.80
2018-09-24T19:37:39.231Z,5.13
2018-09-24T19:40:13.992Z,2.17
2018-09-24T19:42:56.707Z,10.93
2018-09-24T19:51:12.657Z,4.57
2018-09-24T19:53:50.844Z,5.33
2018-09-24T19:56:32.404Z,5.60
2018-09-24T19:59:07.056Z,3.13
2018-09-24T20:01:50.516Z,6.63
2018-09-24T20:04:24.779Z,5.73
2018-09-24T20:06:59.622Z,3.00
2018-09-24T20:09:34.242Z,4.57
2018-09-24T20:12:08.340Z,6.80
2018-09-24T20:14:42.302Z,3.13
2018-09-24T20:17:19.813Z,8.00
2018-09-24T20:19:54.739Z,3.20
2018-09-24T20:22:29.735Z,3.53
2018-09-24T20:25:03.682Z,4.00
2018-09-24T20:27:39.964Z,1.97
2018-09-24T20:30:14.191Z,7.97
2018-09-24T20:32:49.058Z,2.27
2018-09-24T20:35:43.260Z,1.97
2018-09-24T20:38:28.937Z,1.63
2018-09-24T20:41:03.082Z,3.97
2018-09-24T20:43:37.141Z,5.40
2018-09-24T20:46:11.479Z,8.00
2018-09-24T20:48:51.467Z,2.60
2018-09-24T20:51:42.367Z,5.13
2018-09-24T20:54:16.592Z,1.60
2018-09-24T20:56:50.873Z,1.97
2018-09-24T20:59:24.717Z,7.77
2018-09-24T21:01:58.728Z,4.00
2018-09-24T21:04:32.831Z,2.10
2018-09-24T21:07:06.987Z,3.70
2018-09-24T21:09:40.932Z,18.53
2018-09-24T21:12:14.944Z,5.77
2018-09-24T21:14:48.809Z,1.73
2018-09-24T21:17:22.872Z,5.03
2018-09-24T21:19:56.726Z,7.93
2018-09-24T21:22:30.705Z,4.50
2018-09-24T21:25:04.870Z,5.00
2018-09-24T21:27:38.796Z,3.23
2018-09-24T21:30:12.679Z,3.23
2018-09-24T21:32:46.739Z,2.00
2018-09-24T21:35:20.808Z,7.80
2018-09-24T21:37:54.755Z,5.03
2018-09-24T21:40:28.917Z,9.57
2018-09-24T21:43:03.148Z,2.70
2018-09-24T21:45:37.108Z,4.80
2018-09-24T21:48:11.168Z,4.80
2018-09-24T21:50:45.142Z,1.43
2018-09-24T21:53:19.233Z,3.70
2018-09-24T21:55:53.349Z,4.20
2018-09-24T21:58:27.314Z,4.25
2018-09-24T22:01:01.382Z,5.12
2018-09-24T22:06:08.687Z,2.50
2018-09-24T22:11:16.039Z,2.50
2018-09-24T22:13:49.939Z,7.50
2018-09-24T22:16:24.023Z,6.30
2018-09-24T22:18:59.201Z,7.55
2018-09-24T22:21:33.167Z,12.67
2018-09-24T22:24:07.064Z,11.60
2018-09-24T22:26:41.485Z,6.20
2018-09-24T22:29:15.711Z,5.10
2018-09-24T22:31:49.786Z,4.70
2018-09-24T22:34:23.907Z,3.10
2018-09-24T22:36:58.232Z,3.50
2018-09-24T22:39:32.378Z,4.65
2018-09-24T22:42:06.386Z,3.60
2018-09-24T22:44:40.262Z,7.85
2018-09-24T22:47:14.109Z,4.80
2018-09-24T22:49:48.036Z,10.13
2018-09-24T22:52:21.908Z,4.43
2018-09-24T22:54:56.148Z,8.25
2018-09-24T22:57:30.386Z,1.90
2018-09-24T23:00:04.474Z,4.70
2018-09-24T23:02:38.488Z,4.40
2018-09-24T23:05:12.577Z,5.57
2018-09-24T23:07:46.497Z,3.00
2018-09-24T23:10:20.329Z,7.07
2018-09-24T23:12:54.399Z,14.93
2018-09-24T23:15:28.667Z,10.10
2018-09-24T23:18:02.776Z,5.90
2018-09-24T23:20:37.034Z,6.40
2018-09-24T23:23:10.844Z,9.70
2018-09-24T23:25:45.141Z,5.00
2018-09-24T23:28:19.039Z,6.77
2018-09-24T23:30:52.937Z,5.80
2018-09-24T23:33:26.801Z,17.07
2018-09-24T23:36:01.062Z,11.20
2018-09-24T23:38:35.045Z,3.50
2018-09-24T23:41:09.086Z,4.40
2018-09-24T23:43:42.967Z,4.47
2018-09-24T23:46:16.919Z,8.23
2018-09-24T23:48:50.719Z,11.13
2018-09-24T23:51:24.667Z,4.33
2018-09-24T23:53:58.686Z,4.67
2018-09-24T23:56:32.587Z,13.17
2018-09-24T23:59:06.554Z,4.53
